aviador You're here:

LEVX Decoded Metar

VIGO in SPAIN
Report Time2017-12-11 05:00:00
UTC Time2017-12-11 05:34:50
Flight Rules mvfr MVFR
Wind220° at 05 kt
W.Decomp.*RWY 20: 4.6 kt HW 2.0 kt RCW
W.Rank220° ranks 5
Current wind is below 220° avg. (6.6)
Visibility6000 m
Phenomena:Shower Rain
Rain
thunderstorm
Clouds:Broken 030 Hf
Expected CloudBase > 400 ft AGL from Temp-Dew spread
Ceiling3,000 ft
Temp06°C (ISA -7)
Dew Point05°C (93% RH)
AAT3.1°C
QNH0993 hPa
Density Alt764 ft
Elevation840 ft
Report Wrong Elevation
Raw Report
LEVX 110500Z 22005KT 160V300 6000 RA BKN030 06/05 Q0993 WS ALL RWY
TEMPO 3000 TS SHRA BKN020CB=

Extra information for LEVX:More info

Metar Taf Metar & Taf Last 4 Metars F.Rules Stats Wind Profile Meteogram Temp Stats Airport Information Weather charts Add Link Nearby VenuesMetar ALERT Operation Metar Decoded Social comments